ストックホルム/アーランダ の空港の天気 - METARとTAF

ストックホルム・アーランダ空港 ( ESSA / ARN ) - スウェーデン ストックホルム
飛行場実況気象(Metar)
観測時間06/24 11:50 CEST (06/24 09:50 UTC)
風向・風速東 4m/s
視程10km以上
天気現象
なし
気温19℃
湿度43%
気圧1030hPa
METARESSA 240950Z 08007KT 030V100 CAVOK 19/06 Q1030 NOSIG
過去の天気等 Google飛行場航空写真 Wunderground天気予報

過去48時間のMETAR

飛行場予報(TAF)
発表時間: 6/24 07:30 CEST (6/24 05:30 UTC)
予報対象時間: 24日8時 CEST ~ 25日8時 CEST
風向・風速北北東 6m/s
視程10km以上
なし
24日13時 CEST から 確率 40% で
風向・風速不定 2m/s
24日16時 CEST ~ 24日18時 CEST に徐々に
風向・風速南東 5m/s
24日22時 CEST ~ 24日24時 CEST に徐々に
風向・風速南 3m/s
TAF ESSA 240530Z 2406/2506 03012KT CAVOK
PROB40 2411/2414 VRB03KT
BECMG 2414/2416 13010KT
BECMG 2420/2422 19005KT